createdAt,value
2019-01-18T00:00:47.105Z,2.45
2019-01-18T00:03:14.920Z,2.36
2019-01-18T00:05:42.274Z,2.37
2019-01-18T00:08:12.504Z,2.15
2019-01-18T00:10:40.551Z,2.11
2019-01-18T00:13:07.929Z,2.00
2019-01-18T00:15:35.583Z,2.07
2019-01-18T00:18:03.253Z,1.96
2019-01-18T00:20:30.890Z,1.95
2019-01-18T00:22:58.254Z,1.95
2019-01-18T00:25:25.754Z,2.00
2019-01-18T00:27:53.349Z,1.91
2019-01-18T00:30:21.081Z,2.00
2019-01-18T00:32:48.449Z,1.91
2019-01-18T00:35:16.357Z,1.90
2019-01-18T00:37:44.693Z,1.88
2019-01-18T00:40:13.482Z,1.95
2019-01-18T00:42:40.876Z,2.00
2019-01-18T00:45:11.044Z,1.88
2019-01-18T00:47:38.397Z,1.86
2019-01-18T00:50:08.543Z,2.02
2019-01-18T00:52:36.707Z,1.88
2019-01-18T00:55:05.121Z,1.96
2019-01-18T00:57:32.785Z,2.02
2019-01-18T01:00:00.268Z,2.00
2019-01-18T01:02:28.514Z,2.03
2019-01-18T01:04:55.730Z,2.14
2019-01-18T01:07:23.017Z,2.06
2019-01-18T01:09:50.679Z,2.15
2019-01-18T01:12:18.830Z,2.16
2019-01-18T01:14:47.111Z,2.15
2019-01-18T01:17:14.853Z,2.11
2019-01-18T01:19:42.024Z,2.19
2019-01-18T01:22:09.770Z,2.13
2019-01-18T01:24:37.229Z,2.19
2019-01-18T01:27:04.947Z,2.12
2019-01-18T01:29:32.782Z,2.24
2019-01-18T01:32:00.596Z,2.11
2019-01-18T01:34:28.074Z,2.19
2019-01-18T01:36:55.315Z,2.16
2019-01-18T01:39:22.473Z,2.27
2019-01-18T01:41:49.997Z,2.24
2019-01-18T01:44:17.492Z,2.28
2019-01-18T01:46:44.882Z,2.25
2019-01-18T01:49:12.599Z,2.24
2019-01-18T01:51:40.763Z,2.31
2019-01-18T01:54:08.762Z,2.35
2019-01-18T01:56:37.266Z,2.29
2019-01-18T01:59:05.051Z,2.34
2019-01-18T02:01:32.654Z,2.35
2019-01-18T02:03:59.783Z,2.34
2019-01-18T02:06:27.236Z,2.35
2019-01-18T02:08:54.638Z,2.40
2019-01-18T02:11:22.239Z,2.26
2019-01-18T02:13:49.520Z,2.38
2019-01-18T02:16:22.295Z,2.37
2019-01-18T02:18:50.532Z,2.41
2019-01-18T02:21:18.461Z,2.38
2019-01-18T02:23:46.479Z,2.42
2019-01-18T02:26:13.970Z,2.41
2019-01-18T02:28:41.712Z,2.41
2019-01-18T02:31:09.389Z,2.42
2019-01-18T02:33:37.337Z,2.38
2019-01-18T02:36:04.810Z,2.50
2019-01-18T02:38:32.143Z,2.53
2019-01-18T02:40:59.535Z,2.48
2019-01-18T02:43:27.513Z,2.50
2019-01-18T02:45:55.562Z,2.51
2019-01-18T02:48:22.712Z,2.61
2019-01-18T02:50:50.082Z,2.59
2019-01-18T02:53:17.310Z,2.57
2019-01-18T02:55:44.574Z,2.59
2019-01-18T02:58:12.175Z,2.60
2019-01-18T03:00:39.715Z,2.57
2019-01-18T03:03:07.587Z,2.64
2019-01-18T03:05:35.196Z,2.67
2019-01-18T03:08:03.375Z,2.58
2019-01-18T03:10:31.358Z,2.60
2019-01-18T03:12:58.823Z,2.59
2019-01-18T03:15:26.259Z,2.51
2019-01-18T03:17:53.860Z,2.49
2019-01-18T03:20:22.986Z,2.52
2019-01-18T03:22:51.020Z,2.56
2019-01-18T03:25:24.317Z,2.54
2019-01-18T03:27:51.812Z,2.43
2019-01-18T03:30:20.674Z,2.46
2019-01-18T03:32:48.799Z,2.47
2019-01-18T03:35:18.346Z,2.33
2019-01-18T03:37:46.281Z,2.39
2019-01-18T03:40:16.077Z,2.52
2019-01-18T03:42:43.337Z,2.62
2019-01-18T03:45:13.825Z,2.71
2019-01-18T03:47:41.495Z,2.53
2019-01-18T03:50:13.811Z,2.60
2019-01-18T03:52:41.861Z,2.53
2019-01-18T03:55:10.464Z,2.50
2019-01-18T03:57:38.213Z,2.39
2019-01-18T04:00:10.177Z,2.52
2019-01-18T04:02:37.687Z,2.48
2019-01-18T04:05:06.914Z,2.48
2019-01-18T04:07:35.138Z,2.42
2019-01-18T04:10:03.990Z,2.53
2019-01-18T04:12:31.694Z,2.47
2019-01-18T04:14:59.775Z,2.48
2019-01-18T04:17:27.313Z,2.44
2019-01-18T04:19:55.150Z,2.29
2019-01-18T04:22:23.118Z,2.13
2019-01-18T04:24:50.516Z,2.23
2019-01-18T04:27:18.069Z,2.13
2019-01-18T04:29:45.501Z,2.08
2019-01-18T04:32:12.895Z,1.94
2019-01-18T04:34:40.568Z,1.80
2019-01-18T04:37:08.219Z,1.77
2019-01-18T04:39:35.708Z,1.70
2019-01-18T04:42:03.309Z,1.66
2019-01-18T04:44:31.537Z,1.61
2019-01-18T04:46:59.350Z,1.47
2019-01-18T04:49:26.877Z,1.41
2019-01-18T04:51:53.988Z,1.23
2019-01-18T04:54:21.382Z,1.27
2019-01-18T04:56:48.537Z,1.36
2019-01-18T04:59:16.811Z,1.35
2019-01-18T05:01:44.951Z,1.12
2019-01-18T05:04:12.799Z,1.04
2019-01-18T05:06:40.797Z,1.08
2019-01-18T05:09:08.489Z,1.02
2019-01-18T05:11:35.966Z,1.05
2019-01-18T05:14:03.865Z,1.00
2019-01-18T05:16:32.335Z,0.92
2019-01-18T05:18:59.475Z,1.15
2019-01-18T05:21:26.914Z,1.19
2019-01-18T05:23:54.407Z,1.03
2019-01-18T05:26:24.507Z,1.06
2019-01-18T05:28:52.229Z,0.91
2019-01-18T05:31:20.071Z,0.84
2019-01-18T05:33:47.349Z,0.70
2019-01-18T05:36:15.012Z,0.51
2019-01-18T05:38:42.566Z,0.57
2019-01-18T05:41:10.449Z,0.38
2019-01-18T05:43:38.536Z,0.61
2019-01-18T05:46:05.945Z,0.56
2019-01-18T05:48:33.426Z,0.53
2019-01-18T05:51:01.270Z,0.56
2019-01-18T05:53:29.519Z,0.66
2019-01-18T05:55:56.653Z,0.80
2019-01-18T05:58:24.028Z,0.75
2019-01-18T06:01:04.222Z,0.76
2019-01-18T06:03:32.208Z,0.89
2019-01-18T06:05:59.671Z,0.91
2019-01-18T06:08:27.296Z,0.91
2019-01-18T06:10:54.478Z,0.87
2019-01-18T06:13:22.340Z,0.90
2019-01-18T06:15:50.818Z,0.93
2019-01-18T06:18:18.419Z,0.89
2019-01-18T06:20:45.899Z,1.07
2019-01-18T06:23:13.772Z,1.04
2019-01-18T06:25:41.684Z,1.01
2019-01-18T06:28:09.427Z,1.00
2019-01-18T06:30:36.817Z,1.02
2019-01-18T06:33:04.986Z,1.08
2019-01-18T06:35:33.284Z,1.07
2019-01-18T06:38:00.782Z,1.13
2019-01-18T06:40:28.886Z,1.08
2019-01-18T06:42:56.185Z,1.10
2019-01-18T06:45:24.666Z,1.04
2019-01-18T06:47:52.414Z,0.99
2019-01-18T06:50:20.402Z,0.80
2019-01-18T06:52:47.913Z,0.66
2019-01-18T06:55:15.823Z,0.68
2019-01-18T06:57:43.318Z,0.60
2019-01-18T07:00:24.259Z,0.58
2019-01-18T07:02:52.343Z,0.74
2019-01-18T07:05:20.374Z,0.49
2019-01-18T07:07:48.373Z,0.51
2019-01-18T07:10:21.034Z,0.40
2019-01-18T07:12:47.267Z,0.28
2019-01-18T07:15:15.280Z,0.25
2019-01-18T07:17:42.893Z,0.26
2019-01-18T07:20:12.808Z,0.21
2019-01-18T07:22:40.754Z,0.11
2019-01-18T07:25:13.069Z,0.01
2019-01-18T07:27:40.538Z,0.12
2019-01-18T07:30:19.575Z,-0.11
2019-01-18T07:32:47.249Z,-0.24
2019-01-18T07:35:15.158Z,-0.18
2019-01-18T07:37:43.298Z,-0.16
2019-01-18T07:40:11.578Z,-0.12
2019-01-18T07:42:39.979Z,-0.17
2019-01-18T07:45:13.546Z,-0.37
2019-01-18T07:47:41.061Z,-0.28
2019-01-18T07:50:09.870Z,-0.28
2019-01-18T07:52:37.689Z,-0.28
2019-01-18T07:55:06.435Z,-0.56
2019-01-18T07:57:34.475Z,-0.49
2019-01-18T08:00:02.795Z,-0.63
2019-01-18T08:02:30.101Z,-0.64
2019-01-18T08:04:57.856Z,-0.59
2019-01-18T08:07:25.326Z,-0.57
2019-01-18T08:09:52.731Z,-0.65
2019-01-18T08:12:19.996Z,-0.47
2019-01-18T08:14:50.953Z,-0.45
2019-01-18T08:17:18.718Z,-0.33
2019-01-18T08:19:46.850Z,-0.22
2019-01-18T08:22:14.483Z,-0.22
2019-01-18T08:24:41.741Z,-0.17
2019-01-18T08:27:09.422Z,-0.26
2019-01-18T08:29:37.194Z,-0.03
2019-01-18T08:32:04.659Z,-0.07
2019-01-18T08:34:32.843Z,0.09
2019-01-18T08:37:00.486Z,-0.13
2019-01-18T08:39:28.002Z,-0.16
2019-01-18T08:41:55.157Z,-0.08
2019-01-18T08:44:22.803Z,0.01
2019-01-18T08:46:50.512Z,0.05
2019-01-18T08:49:18.339Z,0.10
2019-01-18T08:51:45.677Z,0.24
2019-01-18T08:54:12.972Z,0.29
2019-01-18T08:56:40.983Z,0.45
2019-01-18T08:59:08.671Z,0.69
2019-01-18T09:01:36.370Z,0.94
2019-01-18T09:04:04.126Z,1.19
2019-01-18T09:06:31.580Z,1.59
2019-01-18T09:08:59.202Z,1.95
2019-01-18T09:11:27.313Z,2.26
2019-01-18T09:13:54.862Z,2.63
2019-01-18T09:16:22.176Z,2.73
2019-01-18T09:18:54.931Z,2.78
2019-01-18T09:21:22.884Z,3.01
2019-01-18T09:23:50.261Z,3.18
2019-01-18T09:26:17.811Z,3.36
2019-01-18T09:28:45.704Z,3.35
2019-01-18T09:31:13.599Z,3.48
2019-01-18T09:33:40.838Z,3.51
2019-01-18T09:36:08.974Z,3.77
2019-01-18T09:38:36.752Z,4.00
2019-01-18T09:41:04.676Z,4.02
2019-01-18T09:43:32.616Z,4.09
2019-01-18T09:46:00.167Z,4.23
2019-01-18T09:48:27.799Z,4.50
2019-01-18T09:50:55.186Z,4.75
2019-01-18T09:53:22.542Z,5.12
2019-01-18T09:55:50.219Z,5.35
2019-01-18T09:58:19.150Z,5.46
2019-01-18T10:00:46.873Z,5.59
2019-01-18T10:03:14.385Z,5.77
2019-01-18T10:05:42.247Z,5.90
2019-01-18T10:08:11.279Z,5.88
2019-01-18T10:10:39.024Z,5.92
2019-01-18T10:13:07.369Z,6.09
2019-01-18T10:15:41.849Z,5.88
2019-01-18T10:18:09.431Z,6.21
2019-01-18T10:20:37.534Z,6.12
2019-01-18T10:23:04.909Z,6.01
2019-01-18T10:25:32.880Z,6.01
2019-01-18T10:28:00.585Z,5.94
2019-01-18T10:30:28.740Z,6.11
2019-01-18T10:32:56.861Z,6.50
2019-01-18T10:35:24.856Z,6.68
2019-01-18T10:37:52.785Z,6.76
2019-01-18T10:40:20.613Z,6.79
2019-01-18T10:42:51.895Z,7.24
2019-01-18T10:45:19.871Z,7.30
2019-01-18T10:47:48.179Z,7.05
2019-01-18T10:50:19.021Z,7.22
2019-01-18T10:52:46.886Z,7.03
2019-01-18T10:55:14.444Z,7.31
2019-01-18T10:57:42.331Z,7.56
2019-01-18T11:00:15.273Z,7.57
2019-01-18T11:02:43.426Z,7.57
2019-01-18T11:05:12.057Z,7.49
2019-01-18T11:07:39.859Z,7.37
2019-01-18T11:10:09.322Z,7.05
2019-01-18T11:12:37.031Z,7.21
2019-01-18T11:15:08.158Z,7.30
2019-01-18T11:17:35.839Z,7.30
2019-01-18T11:20:08.253Z,7.53
2019-01-18T11:22:35.643Z,7.73
2019-01-18T11:25:04.114Z,7.91
2019-01-18T11:27:31.894Z,8.24
2019-01-18T11:29:59.344Z,8.37
2019-01-18T11:32:26.947Z,8.43
2019-01-18T11:34:55.311Z,8.79
2019-01-18T11:37:22.799Z,8.86
2019-01-18T11:39:50.650Z,8.91
2019-01-18T11:42:18.267Z,8.94
2019-01-18T11:44:46.387Z,8.97
2019-01-18T11:47:13.781Z,8.98
2019-01-18T11:49:41.290Z,8.99
2019-01-18T11:52:09.091Z,8.98
2019-01-18T11:54:36.628Z,8.74
2019-01-18T11:57:03.846Z,8.61
2019-01-18T11:59:31.065Z,8.58
2019-01-18T12:01:58.418Z,8.52
2019-01-18T12:04:26.048Z,8.37
2019-01-18T12:06:55.792Z,8.24
2019-01-18T12:09:23.211Z,8.06
2019-01-18T12:11:50.849Z,7.71
2019-01-18T12:14:18.376Z,7.49
2019-01-18T12:16:45.538Z,7.48
2019-01-18T12:19:13.278Z,7.31
2019-01-18T12:21:41.318Z,7.11
2019-01-18T12:24:08.544Z,7.01
2019-01-18T12:26:36.182Z,6.73
2019-01-18T12:29:03.812Z,6.65
2019-01-18T12:31:31.784Z,6.67
2019-01-18T12:33:59.997Z,6.66
2019-01-18T12:36:27.803Z,6.47
2019-01-18T12:38:55.605Z,6.42
2019-01-18T12:41:23.342Z,6.55
2019-01-18T12:43:50.884Z,6.37
2019-01-18T12:46:18.611Z,6.26
2019-01-18T12:48:46.343Z,6.33
2019-01-18T12:51:14.158Z,6.41
2019-01-18T12:53:41.406Z,6.15
2019-01-18T12:56:08.727Z,5.97
2019-01-18T12:58:36.744Z,5.78
2019-01-18T13:01:04.319Z,5.78
2019-01-18T13:03:32.217Z,5.84
2019-01-18T13:05:59.878Z,5.81
2019-01-18T13:08:27.524Z,5.50
2019-01-18T13:10:55.475Z,5.62
2019-01-18T13:13:24.345Z,5.45
2019-01-18T13:16:40.885Z,5.54
2019-01-18T13:19:21.420Z,5.39
2019-01-18T13:21:49.496Z,5.29
2019-01-18T13:24:17.084Z,5.34
2019-01-18T13:26:45.173Z,5.32
2019-01-18T13:29:12.888Z,5.28
2019-01-18T13:31:40.729Z,5.10
2019-01-18T13:34:08.045Z,5.04
2019-01-18T13:36:35.685Z,4.88
2019-01-18T13:39:08.682Z,4.76
2019-01-18T13:41:36.187Z,4.75
2019-01-18T13:44:04.047Z,4.62
2019-01-18T13:46:33.442Z,4.43
2019-01-18T13:49:01.255Z,4.38
2019-01-18T13:51:29.678Z,4.35
2019-01-18T13:53:59.614Z,4.22
2019-01-18T13:56:27.087Z,4.16
2019-01-18T13:58:54.637Z,3.94
2019-01-18T14:01:22.400Z,3.67
2019-01-18T14:03:50.118Z,3.69
2019-01-18T14:06:18.210Z,3.56
2019-01-18T14:08:46.055Z,3.50
2019-01-18T14:11:16.066Z,3.47
2019-01-18T14:13:43.849Z,3.47
2019-01-18T14:16:11.360Z,3.26
2019-01-18T14:18:39.038Z,3.22
2019-01-18T14:21:07.778Z,3.22
2019-01-18T14:23:35.461Z,3.19
2019-01-18T14:26:05.590Z,3.07
2019-01-18T14:28:32.969Z,2.95
2019-01-18T14:31:00.368Z,2.87
2019-01-18T14:33:28.393Z,2.80
2019-01-18T14:35:55.928Z,2.71
2019-01-18T14:38:25.297Z,2.72
2019-01-18T14:40:53.086Z,2.85
2019-01-18T14:43:21.100Z,2.62
2019-01-18T14:45:49.333Z,2.67
2019-01-18T14:48:17.201Z,2.50
2019-01-18T14:50:44.988Z,2.44
2019-01-18T14:53:12.243Z,2.51
2019-01-18T14:55:40.154Z,2.51
2019-01-18T14:58:10.670Z,2.28
2019-01-18T15:00:38.875Z,2.34
2019-01-18T15:03:06.716Z,2.32
2019-01-18T15:05:34.440Z,2.32
2019-01-18T15:08:02.519Z,2.14
2019-01-18T15:10:30.299Z,2.04
2019-01-18T15:13:13.892Z,1.94
2019-01-18T15:15:41.425Z,1.98
2019-01-18T15:18:09.266Z,1.96
2019-01-18T15:20:36.860Z,1.79
2019-01-18T15:23:05.996Z,1.66
2019-01-18T15:25:34.109Z,1.66
2019-01-18T15:28:01.961Z,1.45
2019-01-18T15:30:32.160Z,1.60
2019-01-18T15:33:00.923Z,1.53
2019-01-18T15:35:34.991Z,1.44
2019-01-18T15:38:08.092Z,1.63
2019-01-18T15:40:39.252Z,1.39
2019-01-18T15:43:18.521Z,1.33
2019-01-18T15:45:46.106Z,1.26
2019-01-18T15:48:14.081Z,1.32
2019-01-18T15:50:41.685Z,1.24
2019-01-18T15:53:09.458Z,1.17
2019-01-18T15:55:37.487Z,1.16
2019-01-18T15:58:07.162Z,0.92
2019-01-18T16:00:41.160Z,0.94
2019-01-18T16:03:15.642Z,0.89
2019-01-18T16:05:39.115Z,0.94
2019-01-18T16:08:08.332Z,0.84
2019-01-18T16:10:35.832Z,0.73
2019-01-18T16:13:05.065Z,0.76
2019-01-18T16:15:38.791Z,0.59
2019-01-18T16:18:10.429Z,0.53
2019-01-18T16:20:37.727Z,0.44
2019-01-18T16:23:08.916Z,0.27
2019-01-18T16:25:36.863Z,0.13
2019-01-18T16:28:05.089Z,0.14
2019-01-18T16:30:32.852Z,0.25
2019-01-18T16:33:01.022Z,0.14
2019-01-18T16:35:30.071Z,0.09
2019-01-18T16:38:00.113Z,-0.08
2019-01-18T16:40:30.511Z,-0.14
2019-01-18T16:43:03.514Z,-0.17
2019-01-18T16:45:31.679Z,-0.31
2019-01-18T16:47:59.371Z,-0.37
2019-01-18T16:50:29.907Z,-0.33
2019-01-18T16:52:57.744Z,-0.33
2019-01-18T16:55:25.381Z,-0.35
2019-01-18T16:57:53.393Z,-0.52
2019-01-18T17:00:26.185Z,-0.63
2019-01-18T17:02:53.419Z,-0.69
2019-01-18T17:05:21.010Z,-0.67
2019-01-18T17:07:48.241Z,-0.73
2019-01-18T17:10:15.862Z,-0.88
2019-01-18T17:12:43.878Z,-0.88
2019-01-18T17:15:12.199Z,-0.86
2019-01-18T17:17:42.062Z,-1.01
2019-01-18T17:20:14.855Z,-1.00
2019-01-18T17:22:42.333Z,-0.97
2019-01-18T17:25:09.830Z,-1.12
2019-01-18T17:27:37.505Z,-1.12
2019-01-18T17:30:08.297Z,-1.08
2019-01-18T17:32:36.256Z,-1.10
2019-01-18T17:35:10.486Z,-1.21
2019-01-18T17:37:42.712Z,-1.19
2019-01-18T17:40:41.570Z,-1.14
2019-01-18T17:43:41.638Z,-1.26
2019-01-18T17:47:07.145Z,-1.34
2019-01-18T17:50:26.605Z,-1.26
2019-01-18T17:53:22.334Z,-1.26
2019-01-18T17:56:39.299Z,-1.32
2019-01-18T18:00:09.311Z,-1.42
2019-01-18T18:03:08.651Z,-1.42
2019-01-18T18:06:43.427Z,-1.50
2019-01-18T18:09:30.603Z,-1.55
2019-01-18T18:13:30.470Z,-1.61
2019-01-18T18:17:11.247Z,-1.72
2019-01-18T18:20:53.580Z,-1.68
2019-01-18T18:24:05.904Z,-1.69
2019-01-18T18:27:31.933Z,-1.78
2019-01-18T18:30:53.243Z,-1.79
2019-01-18T18:34:22.025Z,-1.79
2019-01-18T18:37:52.500Z,-1.82
2019-01-18T18:41:05.025Z,-1.67
2019-01-18T18:44:21.426Z,-1.80
2019-01-18T18:47:33.776Z,-1.83
2019-01-18T18:51:07.909Z,-1.91
2019-01-18T18:54:33.460Z,-1.90
2019-01-18T18:58:05.689Z,-2.01
2019-01-18T19:01:21.545Z,-1.92
2019-01-18T19:04:24.663Z,-2.01
2019-01-18T19:08:13.960Z,-1.84
2019-01-18T19:11:12.409Z,-1.88
2019-01-18T19:14:38.333Z,-1.93
2019-01-18T19:17:57.364Z,-1.88
2019-01-18T19:21:20.762Z,-1.91
2019-01-18T19:24:28.615Z,-1.96
2019-01-18T19:27:11.884Z,-1.95
2019-01-18T19:30:43.073Z,-1.95
2019-01-18T19:33:48.931Z,-1.98
2019-01-18T19:37:10.033Z,-2.02
2019-01-18T19:40:23.208Z,-2.05
2019-01-18T19:43:52.099Z,-2.04
2019-01-18T19:47:01.826Z,-2.05
2019-01-18T19:49:54.084Z,-2.06
2019-01-18T19:52:57.007Z,-2.09
2019-01-18T19:56:14.463Z,-2.17
2019-01-18T19:59:44.442Z,-2.15
2019-01-18T20:03:34.593Z,-2.14
2019-01-18T20:07:21.201Z,-2.06
2019-01-18T20:10:31.867Z,-2.02
2019-01-18T20:13:50.017Z,-2.15
2019-01-18T20:16:55.034Z,-2.22
2019-01-18T20:20:15.596Z,-2.17
2019-01-18T20:24:07.977Z,-2.19
2019-01-18T20:27:29.811Z,-2.18
2019-01-18T20:30:55.162Z,-2.23
2019-01-18T20:34:18.305Z,-2.23
2019-01-18T20:37:27.043Z,-2.29
2019-01-18T20:41:12.183Z,-2.34
2019-01-18T20:44:06.024Z,-2.43
2019-01-18T20:46:57.237Z,-2.38
2019-01-18T20:50:13.694Z,-2.44
2019-01-18T20:53:41.006Z,-2.33
2019-01-18T20:57:18.721Z,-2.39
2019-01-18T21:01:02.501Z,-2.49
2019-01-18T21:04:35.519Z,-2.45
2019-01-18T21:07:42.497Z,-2.53
2019-01-18T21:11:17.233Z,-2.44
2019-01-18T21:14:54.879Z,-2.53
2019-01-18T21:17:56.342Z,-2.54
2019-01-18T21:21:33.322Z,-2.53
2019-01-18T21:24:56.015Z,-2.53
2019-01-18T21:28:45.009Z,-2.57
2019-01-18T21:32:08.184Z,-2.55
2019-01-18T21:35:04.577Z,-2.53
2019-01-18T21:38:47.046Z,-2.47
2019-01-18T21:42:03.551Z,-2.59
2019-01-18T21:45:41.582Z,-2.60
2019-01-18T21:49:24.177Z,-2.62
2019-01-18T21:52:57.958Z,-2.63
2019-01-18T21:56:32.118Z,-2.68
2019-01-18T21:59:53.445Z,-2.60
2019-01-18T22:02:47.874Z,-2.66
2019-01-18T22:06:04.187Z,-2.66
2019-01-18T22:08:57.343Z,-2.66
2019-01-18T22:12:27.352Z,-2.70
2019-01-18T22:16:11.215Z,-2.63
2019-01-18T22:19:31.912Z,-2.66
2019-01-18T22:22:32.551Z,-2.72
2019-01-18T22:26:22.732Z,-2.65
2019-01-18T22:29:28.537Z,-2.69
2019-01-18T22:32:36.263Z,-2.76
2019-01-18T22:35:46.136Z,-2.77
2019-01-18T22:39:39.861Z,-2.72
2019-01-18T22:42:38.153Z,-2.85
2019-01-18T22:45:30.791Z,-2.83
2019-01-18T22:48:47.147Z,-2.91
2019-01-18T22:51:48.518Z,-2.90
2019-01-18T22:55:25.608Z,-2.82
2019-01-18T22:58:30.594Z,-2.95
2019-01-18T23:01:32.402Z,-2.94
2019-01-18T23:04:42.904Z,-2.96
2019-01-18T23:08:05.051Z,-2.97
2019-01-18T23:11:18.469Z,-2.99
2019-01-18T23:14:18.729Z,-3.07
2019-01-18T23:17:20.501Z,-3.13
2019-01-18T23:20:23.703Z,-3.20
2019-01-18T23:24:03.000Z,-3.23
2019-01-18T23:27:33.320Z,-3.19
2019-01-18T23:30:50.015Z,-3.30
2019-01-18T23:34:01.433Z,-3.19
2019-01-18T23:37:03.880Z,-3.27
2019-01-18T23:40:23.633Z,-3.26
2019-01-18T23:43:55.462Z,-3.36
2019-01-18T23:47:16.971Z,-3.36
2019-01-18T23:50:36.459Z,-3.50
2019-01-18T23:53:34.637Z,-3.48
2019-01-18T23:57:07.849Z,-3.55
2019-01-18T23:59:54.646Z,-3.51
